createdAt,value
2019-05-16T00:00:08.864Z,7.30
2019-05-16T00:04:14.863Z,7.30
2019-05-16T00:08:20.479Z,7.30
2019-05-16T00:12:26.124Z,7.30
2019-05-16T00:16:37.862Z,7.20
2019-05-16T00:20:43.125Z,7.20
2019-05-16T00:24:49.230Z,7.40
2019-05-16T00:28:54.993Z,7.30
2019-05-16T00:33:00.673Z,7.40
2019-05-16T00:37:08.499Z,7.30
2019-05-16T00:41:15.127Z,7.10
2019-05-16T00:45:20.946Z,7.00
2019-05-16T00:49:28.138Z,7.10
2019-05-16T00:53:33.898Z,7.20
2019-05-16T00:57:39.566Z,7.10
2019-05-16T01:01:45.245Z,7.10
2019-05-16T01:05:50.877Z,7.20
2019-05-16T01:09:58.348Z,7.20
2019-05-16T01:14:04.152Z,7.30
2019-05-16T01:18:09.868Z,7.40
2019-05-16T01:22:15.568Z,7.20
2019-05-16T01:26:21.232Z,7.10
2019-05-16T01:30:28.653Z,7.00
2019-05-16T01:34:34.824Z,7.10
2019-05-16T01:38:42.097Z,7.10
2019-05-16T01:42:48.933Z,7.10
2019-05-16T01:46:54.736Z,7.20
2019-05-16T01:51:01.901Z,7.20
2019-05-16T01:55:08.229Z,7.10
2019-05-16T01:59:14.213Z,7.10
2019-05-16T02:03:21.996Z,7.20
2019-05-16T02:07:28.983Z,7.20
2019-05-16T02:11:34.714Z,7.10
2019-05-16T02:15:40.364Z,7.20
2019-05-16T02:19:48.374Z,7.10
2019-05-16T02:23:55.034Z,7.00
2019-05-16T02:28:00.697Z,7.00
2019-05-16T02:32:06.482Z,7.10
2019-05-16T02:36:13.864Z,7.30
2019-05-16T02:40:21.389Z,7.10
2019-05-16T02:44:31.481Z,7.00
2019-05-16T02:48:35.771Z,7.10
2019-05-16T02:52:41.751Z,7.20
2019-05-16T02:56:50.451Z,7.10
2019-05-16T03:00:54.824Z,7.00
2019-05-16T03:05:01.083Z,7.00
2019-05-16T03:09:10.949Z,7.10
2019-05-16T03:13:14.826Z,7.10
2019-05-16T03:17:21.588Z,7.10
2019-05-16T03:21:27.397Z,7.10
2019-05-16T03:25:33.072Z,7.20
2019-05-16T03:29:41.610Z,7.20
2019-05-16T03:33:56.407Z,7.10
2019-05-16T03:38:00.076Z,7.20
2019-05-16T03:42:01.373Z,7.20
2019-05-16T03:46:11.456Z,7.10
2019-05-16T03:50:15.461Z,7.10
2019-05-16T03:54:22.869Z,7.20
2019-05-16T03:58:31.015Z,7.10
2019-05-16T04:02:36.454Z,7.30
2019-05-16T04:06:42.144Z,7.20
2019-05-16T04:10:47.772Z,7.10
2019-05-16T04:14:53.723Z,7.10
2019-05-16T04:19:01.869Z,7.10
2019-05-16T04:23:06.754Z,7.30
2019-05-16T04:27:12.460Z,7.10
2019-05-16T04:31:21.714Z,7.20
2019-05-16T04:35:26.993Z,7.10
2019-05-16T04:39:32.723Z,7.20
2019-05-16T04:43:41.335Z,7.20
2019-05-16T04:47:45.618Z,7.30
2019-05-16T04:51:51.850Z,7.30
2019-05-16T04:56:01.752Z,7.30
2019-05-16T05:00:06.930Z,7.30
2019-05-16T05:04:15.325Z,7.30
2019-05-16T05:08:22.087Z,7.30
2019-05-16T05:12:27.065Z,7.40
2019-05-16T05:16:33.226Z,7.40
2019-05-16T05:20:41.040Z,7.30
2019-05-16T05:24:50.600Z,7.50
2019-05-16T05:28:55.663Z,7.40
2019-05-16T05:33:01.243Z,7.60
2019-05-16T05:37:06.894Z,7.50
2019-05-16T05:41:12.525Z,7.40
2019-05-16T05:45:20.126Z,7.50
2019-05-16T05:49:25.923Z,7.60
2019-05-16T05:53:31.606Z,7.50
2019-05-16T05:57:37.220Z,7.60
2019-05-16T06:01:42.900Z,7.70
2019-05-16T06:05:50.462Z,7.60
2019-05-16T06:09:57.106Z,7.70
2019-05-16T06:14:03.361Z,7.80
2019-05-16T06:18:10.866Z,7.80
2019-05-16T06:22:16.380Z,7.70
2019-05-16T06:26:21.984Z,7.90
2019-05-16T06:30:30.423Z,7.90
2019-05-16T06:34:36.649Z,8.00
2019-05-16T06:38:42.969Z,8.10
2019-05-16T06:42:50.792Z,8.20
2019-05-16T06:47:14.979Z,8.30
2019-05-16T06:51:03.341Z,8.30
2019-05-16T06:55:10.128Z,8.40
2019-05-16T06:59:15.936Z,8.50
2019-05-16T07:03:21.591Z,8.60
2019-05-16T07:07:27.273Z,8.70
2019-05-16T07:11:33.348Z,8.70
2019-05-16T07:15:40.262Z,8.90
2019-05-16T07:19:46.131Z,9.00
2019-05-16T07:23:51.789Z,9.20
2019-05-16T07:27:57.883Z,9.40
2019-05-16T07:32:03.711Z,9.30
2019-05-16T07:36:10.886Z,9.20
2019-05-16T07:40:23.743Z,9.30
2019-05-16T07:44:24.727Z,9.40
2019-05-16T07:48:31.587Z,9.60
2019-05-16T07:52:39.984Z,9.90
2019-05-16T07:56:45.110Z,9.90
2019-05-16T08:01:02.084Z,10.00
2019-05-16T08:05:00.536Z,10.00
2019-05-16T08:09:07.857Z,10.00
2019-05-16T08:13:17.464Z,10.10
2019-05-16T08:17:21.841Z,10.30
2019-05-16T08:21:30.870Z,10.50
2019-05-16T08:25:37.214Z,10.50
2019-05-16T08:29:43.136Z,10.50
2019-05-16T08:33:52.183Z,10.60
2019-05-16T08:37:56.048Z,10.70
2019-05-16T08:42:08.130Z,10.80
2019-05-16T08:46:12.352Z,10.90
2019-05-16T08:50:16.248Z,11.20
2019-05-16T08:54:22.016Z,11.40
2019-05-16T08:58:32.710Z,11.40
2019-05-16T09:02:36.915Z,11.30
2019-05-16T09:06:42.806Z,11.40
2019-05-16T09:10:59.618Z,11.40
2019-05-16T09:15:00.443Z,11.50
2019-05-16T09:19:03.179Z,11.60
2019-05-16T09:23:09.506Z,11.80
2019-05-16T09:27:20.108Z,12.00
2019-05-16T09:31:27.519Z,12.30
2019-05-16T09:35:33.542Z,12.60
2019-05-16T09:39:39.364Z,12.60
2019-05-16T09:43:48.233Z,12.40
2019-05-16T09:47:52.252Z,12.50
2019-05-16T09:51:57.925Z,12.70
2019-05-16T09:56:04.145Z,12.90
2019-05-16T10:00:12.539Z,13.00
2019-05-16T10:04:18.304Z,13.00
2019-05-16T10:08:26.771Z,13.20
2019-05-16T10:12:31.998Z,13.30
2019-05-16T10:16:39.998Z,13.30
2019-05-16T10:20:45.609Z,13.60
2019-05-16T10:24:52.270Z,13.60
2019-05-16T10:28:58.150Z,13.70
2019-05-16T10:33:03.732Z,13.60
2019-05-16T10:37:10.835Z,13.70
2019-05-16T10:41:17.541Z,13.90
2019-05-16T10:45:23.269Z,13.80
2019-05-16T10:49:36.814Z,13.80
2019-05-16T10:54:01.049Z,14.00
2019-05-16T10:57:47.155Z,14.10
2019-05-16T11:01:52.532Z,14.10
2019-05-16T11:06:05.475Z,14.30
2019-05-16T11:10:07.211Z,14.40
2019-05-16T11:14:13.098Z,14.50
2019-05-16T11:18:18.978Z,14.50
2019-05-16T11:22:29.419Z,14.70
2019-05-16T11:26:31.935Z,14.90
2019-05-16T11:30:37.829Z,14.60
2019-05-16T11:34:43.651Z,15.00
2019-05-16T11:38:49.369Z,15.10
2019-05-16T11:43:06.683Z,15.40
2019-05-16T11:47:03.179Z,15.40
2019-05-16T11:51:08.917Z,15.40
2019-05-16T11:55:14.625Z,15.40
2019-05-16T11:59:20.240Z,15.60
2019-05-16T12:03:28.182Z,15.90
2019-05-16T12:07:35.389Z,15.90
2019-05-16T12:11:41.623Z,16.00
2019-05-16T12:15:47.288Z,15.80
2019-05-16T12:19:53.087Z,15.70
2019-05-16T12:23:58.883Z,16.30
2019-05-16T12:28:04.552Z,16.10
2019-05-16T12:32:10.282Z,16.40
2019-05-16T12:36:17.604Z,16.40
2019-05-16T12:40:23.425Z,16.80
2019-05-16T12:44:30.075Z,17.00
2019-05-16T12:48:37.286Z,17.10
2019-05-16T12:52:43.228Z,17.40
2019-05-16T12:56:58.077Z,17.60
2019-05-16T13:01:03.334Z,17.30
2019-05-16T13:05:09.430Z,17.10
2019-05-16T13:09:15.201Z,17.20
2019-05-16T13:13:20.922Z,17.60
2019-05-16T13:17:27.507Z,17.00
2019-05-16T13:21:33.169Z,17.00
2019-05-16T13:25:38.846Z,17.80
2019-05-16T13:29:47.478Z,18.30
2019-05-16T13:33:51.861Z,18.00
2019-05-16T13:37:58.065Z,17.80
2019-05-16T13:42:04.208Z,16.50
2019-05-16T13:46:09.994Z,16.60
2019-05-16T13:50:16.850Z,16.10
2019-05-16T13:54:22.655Z,17.50
2019-05-16T13:58:28.419Z,17.80
2019-05-16T14:02:34.364Z,15.70
2019-05-16T14:06:41.652Z,15.10
2019-05-16T14:10:48.829Z,16.90
2019-05-16T14:14:54.646Z,18.00
2019-05-16T14:19:00.429Z,18.10
2019-05-16T14:23:08.611Z,18.30
2019-05-16T14:27:13.598Z,18.50
2019-05-16T14:31:19.258Z,17.70
2019-05-16T14:35:26.755Z,18.40
2019-05-16T14:39:33.655Z,18.50
2019-05-16T14:43:39.274Z,18.60
2019-05-16T14:47:47.688Z,17.80
2019-05-16T14:51:53.543Z,18.30
2019-05-16T14:55:59.216Z,18.50
2019-05-16T15:00:07.550Z,18.50
2019-05-16T15:04:13.333Z,18.50
2019-05-16T15:08:18.943Z,17.60
2019-05-16T15:12:26.848Z,17.10
2019-05-16T15:16:31.929Z,18.10
2019-05-16T15:20:38.626Z,18.40
2019-05-16T15:24:44.257Z,18.30
2019-05-16T15:28:51.178Z,18.40
2019-05-16T15:32:58.244Z,18.10
2019-05-16T15:37:04.046Z,18.10
2019-05-16T15:41:41.918Z,16.80
2019-05-16T15:45:44.006Z,15.60
2019-05-16T15:49:48.203Z,17.10
2019-05-16T15:53:53.886Z,18.00
2019-05-16T15:57:59.626Z,16.40
2019-05-16T16:02:07.188Z,16.40
2019-05-16T16:06:13.595Z,17.00
2019-05-16T16:10:22.714Z,16.90
2019-05-16T16:14:28.496Z,17.60
2019-05-16T16:18:34.216Z,17.80
2019-05-16T16:22:39.965Z,17.70
2019-05-16T16:26:47.015Z,17.80
2019-05-16T16:30:52.800Z,17.80
2019-05-16T16:34:59.957Z,17.70
2019-05-16T16:39:07.506Z,17.90
2019-05-16T16:43:13.305Z,17.60
2019-05-16T16:47:19.496Z,17.50
2019-05-16T16:51:26.910Z,17.20
2019-05-16T16:55:33.814Z,16.60
2019-05-16T16:59:40.701Z,13.90
2019-05-16T17:03:47.462Z,13.90
2019-05-16T17:07:53.223Z,13.90
2019-05-16T17:11:59.885Z,15.90
2019-05-16T17:16:21.161Z,14.80
2019-05-16T17:20:14.609Z,14.10
2019-05-16T17:24:20.272Z,14.00
2019-05-16T17:28:26.471Z,13.70
2019-05-16T17:32:32.267Z,13.60
2019-05-16T17:36:39.769Z,14.00
2019-05-16T17:40:46.435Z,13.90
2019-05-16T17:44:52.214Z,13.20
2019-05-16T17:48:59.344Z,15.30
2019-05-16T17:53:07.076Z,16.20
2019-05-16T17:57:17.025Z,16.90
2019-05-16T18:01:22.864Z,17.00
2019-05-16T18:05:28.639Z,16.90
2019-05-16T18:09:36.762Z,16.60
2019-05-16T18:13:42.732Z,16.70
2019-05-16T18:17:49.868Z,16.80
2019-05-16T18:21:57.101Z,16.80
2019-05-16T18:26:03.220Z,16.70
2019-05-16T18:30:09.966Z,16.70
2019-05-16T18:34:16.852Z,16.60
2019-05-16T18:38:23.202Z,16.50
2019-05-16T18:42:32.414Z,16.50
2019-05-16T18:46:40.594Z,16.50
2019-05-16T18:50:47.877Z,16.40
2019-05-16T18:54:57.645Z,16.30
2019-05-16T18:59:06.089Z,16.30
2019-05-16T19:03:11.741Z,16.20
2019-05-16T19:07:27.221Z,16.20
2019-05-16T19:11:36.589Z,16.20
2019-05-16T19:15:49.342Z,16.10
2019-05-16T19:19:54.301Z,16.00
2019-05-16T19:24:04.413Z,15.90
2019-05-16T19:28:23.383Z,15.90
2019-05-16T19:32:31.587Z,15.90
2019-05-16T19:36:39.213Z,15.80
2019-05-16T19:40:46.884Z,15.70
2019-05-16T19:44:55.854Z,15.60
2019-05-16T19:49:01.561Z,15.60
2019-05-16T19:53:08.708Z,15.60
2019-05-16T19:57:14.753Z,15.50
2019-05-16T20:01:21.835Z,15.40
2019-05-16T20:05:27.884Z,15.40
2019-05-16T20:09:36.236Z,15.30
2019-05-16T20:13:43.205Z,15.30
2019-05-16T20:17:56.193Z,15.20
2019-05-16T20:22:07.661Z,15.20
2019-05-16T20:26:18.782Z,15.10
2019-05-16T20:30:26.435Z,15.10
2019-05-16T20:34:32.421Z,15.00
2019-05-16T20:38:38.612Z,15.00
2019-05-16T20:42:47.532Z,14.90
2019-05-16T20:46:53.159Z,14.80
2019-05-16T20:51:02.056Z,14.80
2019-05-16T20:55:10.346Z,14.80
2019-05-16T20:59:20.859Z,14.70
2019-05-16T21:03:27.501Z,14.70
2019-05-16T21:07:33.325Z,14.50
2019-05-16T21:11:42.394Z,14.50
2019-05-16T21:15:50.441Z,14.50
2019-05-16T21:19:58.396Z,14.40
2019-05-16T21:24:03.863Z,14.40
2019-05-16T21:28:11.431Z,14.30
2019-05-16T21:32:18.820Z,14.20
2019-05-16T21:36:27.420Z,14.20
2019-05-16T21:40:33.510Z,14.10
2019-05-16T21:44:39.634Z,14.10
2019-05-16T21:48:47.270Z,14.00
2019-05-16T21:52:56.499Z,14.00
2019-05-16T21:57:03.301Z,13.90
2019-05-16T22:01:09.093Z,13.80
2019-05-16T22:05:17.701Z,13.80
2019-05-16T22:09:23.720Z,13.70
2019-05-16T22:13:30.975Z,13.60
2019-05-16T22:17:38.671Z,13.60
2019-05-16T22:21:44.418Z,13.50
2019-05-16T22:25:50.449Z,13.50
2019-05-16T22:29:58.446Z,13.40
2019-05-16T22:34:07.527Z,13.30
2019-05-16T22:38:16.701Z,13.30
2019-05-16T22:42:23.524Z,13.20
2019-05-16T22:46:30.209Z,13.10
2019-05-16T22:50:36.647Z,13.10
2019-05-16T22:54:42.431Z,13.00
2019-05-16T22:58:48.284Z,13.00
2019-05-16T23:02:56.257Z,12.90
2019-05-16T23:07:01.762Z,12.90
2019-05-16T23:11:07.924Z,12.90
2019-05-16T23:15:17.638Z,12.80
2019-05-16T23:19:23.364Z,12.70
2019-05-16T23:23:30.937Z,12.60
2019-05-16T23:27:37.006Z,12.50
2019-05-16T23:31:42.846Z,12.50
2019-05-16T23:35:48.631Z,12.50
2019-05-16T23:39:56.738Z,12.50
2019-05-16T23:44:01.851Z,12.40
2019-05-16T23:48:10.229Z,12.40
2019-05-16T23:52:16.798Z,12.40
2019-05-16T23:56:22.952Z,12.30
